Peterstown, West Virginia
Current Conditions -  °F | °C
As of 1:15 PM on Thursday 30 Oct 2014 (Local Time) from KPSK Reporting Station
Broken Clouds Broken Clouds  
Wind Chill: 53°   Ceiling: 3600
Heat Index: 53°   Visibility: 10mi
Dew Point: 38°   Wind: 6mph
Humidity: 55%   Direction: 30°NNE
Pressure: 30.08"   Gusts: NA
Location:  37.4°N, 80.8°W
Report Text: KPSK 301715Z AUTO 03005KT 10SM BKN036 12/03 A3008 RMK AO2 T01190032
Loading
Personal Weather Stations






























Interactive Weather Map
Tropical Storm Tracking
New forecast layout! Learn more

10-Day Weather Forecast

Advertisements
Track Severe Weather on mobile